PWSweather.com
Personal Weather Stations
Station Observations
SHAHALMS1
Eftra, Falkenberg, HA

EftraFalkenberg, HA

Lat: 56.85, Lon: 12.65

Elevation: 140

Station Type:

http://hem.passagen.se/risarp101

High Low Average
Temperature 59.9°F15.5°C 52.3°F11.3°C 55.5°F13.1°C
Dew Point 52.8°F11.6°C 45.3°F7.4°C 49.6°F9.8°C
Winds 9.9 mph 15.9 kmh 0.6 mph 1.0 kmh 6.0 mph E9.7 kmh E
Wind Gusts 17.5 mph28.2 kmh 1.4 mph2.3 kmh 10.0 mph16.1 kmh
Humidity 86% 76% 80%
Pressure 29.86 in1011.2 mb 29.80 in1009.1 mb -
Precipitation 0.00 in0.0 mm - -
Hour Temp Dew Point Humidity Winds Wind Gusts Pressure Precip Precip Rate Daily Precip Total
12:00 AM 54.0°F12.2°C 48.3°F9.1°C 81% 4.7 mph E7.6 kmh E 8.9 mph14.3 kmh 29.83 in1010.2 mb 0.00 in0.0 mm 0.00 in0.0 mm 0.00 in0.0 mm
12:10 AM 54.0°F12.2°C 48.6°F9.2°C 82% 5.6 mph E9.0 kmh E 8.9 mph14.3 kmh 29.83 in1010.2 mb 0.00 in0.0 mm 0.00 in0.0 mm 0.00 in0.0 mm
12:20 AM 54.0°F12.2°C 48.6°F9.2°C 82% 3.3 mph E5.3 kmh E 7.5 mph12.1 kmh 29.83 in1010.2 mb 0.00 in0.0 mm 0.00 in0.0 mm 0.00 in0.0 mm
12:30 AM 54.0°F12.2°C 48.6°F9.2°C 82% 5.3 mph E8.5 kmh E 9.3 mph15.0 kmh 29.83 in1010.2 mb 0.00 in0.0 mm 0.00 in0.0 mm 0.00 in0.0 mm
12:40 AM 54.0°F12.2°C 48.9°F9.4°C 83% 6.4 mph E10.3 kmh E 9.3 mph15.0 kmh 29.83 in1010.2 mb 0.00 in0.0 mm 0.00 in0.0 mm 0.00 in0.0 mm
12:50 AM 54.0°F12.2°C 48.6°F9.2°C 82% 5.5 mph E8.9 kmh E 8.6 mph13.8 kmh 29.83 in1010.2 mb 0.00 in0.0 mm 0.00 in0.0 mm 0.00 in0.0 mm
01:00 AM 54.0°F12.2°C 48.9°F9.4°C 83% 5.6 mph E9.0 kmh E 9.3 mph15.0 kmh 29.80 in1009.1 mb 0.00 in0.0 mm 0.00 in0.0 mm 0.00 in0.0 mm
01:10 AM 54.0°F12.2°C 48.9°F9.4°C 83% 5.9 mph E9.5 kmh E 9.3 mph15.0 kmh 29.83 in1010.2 mb 0.00 in0.0 mm 0.00 in0.0 mm 0.00 in0.0 mm
01:20 AM 53.8°F12.1°C 48.7°F9.3°C 83% 5.3 mph E8.5 kmh E 9.3 mph15.0 kmh 29.83 in1010.2 mb 0.00 in0.0 mm 0.00 in0.0 mm 0.00 in0.0 mm
01:30 AM 53.8°F12.1°C 48.7°F9.3°C 83% 4.9 mph E7.9 kmh E 11.8 mph19.0 kmh 29.83 in1010.2 mb 0.00 in0.0 mm 0.00 in0.0 mm 0.00 in0.0 mm
01:40 AM 53.8°F12.1°C 48.7°F9.3°C 83% 5.4 mph E8.7 kmh E 10.0 mph16.1 kmh 29.83 in1010.2 mb 0.00 in0.0 mm 0.00 in0.0 mm 0.00 in0.0 mm
01:50 AM 53.8°F12.1°C 48.4°F9.1°C 82% 4.2 mph E6.8 kmh E 11.8 mph19.0 kmh 29.83 in1010.2 mb 0.00 in0.0 mm 0.00 in0.0 mm 0.00 in0.0 mm
02:00 AM 53.8°F12.1°C 48.4°F9.1°C 82% 3.3 mph E5.3 kmh E 9.3 mph15.0 kmh 29.83 in1010.2 mb 0.00 in0.0 mm 0.00 in0.0 mm 0.00 in0.0 mm
02:10 AM 53.6°F12.0°C 48.2°F9.0°C 82% 6.0 mph E9.7 kmh E 10.4 mph16.7 kmh 29.83 in1010.2 mb 0.00 in0.0 mm 0.00 in0.0 mm 0.00 in0.0 mm
02:20 AM 53.6°F12.0°C 48.2°F9.0°C 82% 5.1 mph E8.2 kmh E 12.2 mph19.6 kmh 29.83 in1010.2 mb 0.00 in0.0 mm 0.00 in0.0 mm 0.00 in0.0 mm
02:30 AM 53.4°F11.9°C 48.1°F8.9°C 82% 5.2 mph E8.4 kmh E 10.4 mph16.7 kmh 29.83 in1010.2 mb 0.00 in0.0 mm 0.00 in0.0 mm 0.00 in0.0 mm
02:40 AM 53.2°F11.8°C 47.9°F8.8°C 82% 4.5 mph E7.2 kmh E 9.7 mph15.6 kmh 29.83 in1010.2 mb 0.00 in0.0 mm 0.00 in0.0 mm 0.00 in0.0 mm
02:50 AM 53.1°F11.7°C 47.7°F8.7°C 82% 6.6 mph E10.6 kmh E 10.4 mph16.7 kmh 29.83 in1010.2 mb 0.00 in0.0 mm 0.00 in0.0 mm 0.00 in0.0 mm
03:00 AM 53.1°F11.7°C 48.0°F8.9°C 83% 7.4 mph E11.9 kmh E 12.2 mph19.6 kmh 29.83 in1010.2 mb 0.00 in0.0 mm 0.00 in0.0 mm 0.00 in0.0 mm
03:10 AM 52.9°F11.6°C 47.9°F8.8°C 83% 6.1 mph E9.8 kmh E 11.8 mph19.0 kmh 29.80 in1009.1 mb 0.00 in0.0 mm 0.00 in0.0 mm 0.00 in0.0 mm
03:20 AM 52.7°F11.5°C 47.7°F8.7°C 83% 6.3 mph E10.1 kmh E 9.7 mph15.6 kmh 29.80 in1009.1 mb 0.00 in0.0 mm 0.00 in0.0 mm 0.00 in0.0 mm
03:30 AM 52.7°F11.5°C 47.7°F8.7°C 83% 7.9 mph E12.7 kmh E 11.8 mph19.0 kmh 29.80 in1009.1 mb 0.00 in0.0 mm 0.00 in0.0 mm 0.00 in0.0 mm
03:40 AM 52.5°F11.4°C 47.8°F8.8°C 84% 7.1 mph E11.4 kmh E 12.2 mph19.6 kmh 29.80 in1009.1 mb 0.00 in0.0 mm 0.00 in0.0 mm 0.00 in0.0 mm
03:50 AM 52.5°F11.4°C 47.8°F8.8°C 84% 7.8 mph E12.6 kmh E 11.5 mph18.5 kmh 29.80 in1009.1 mb 0.00 in0.0 mm 0.00 in0.0 mm 0.00 in0.0 mm
04:00 AM 52.5°F11.4°C 47.8°F8.8°C 84% 6.1 mph E9.8 kmh E 10.0 mph16.1 kmh 29.80 in1009.1 mb 0.00 in0.0 mm 0.00 in0.0 mm 0.00 in0.0 mm
04:10 AM 52.5°F11.4°C 48.1°F8.9°C 85% 6.0 mph E9.7 kmh E 8.6 mph13.8 kmh 29.80 in1009.1 mb 0.00 in0.0 mm 0.00 in0.0 mm 0.00 in0.0 mm
04:20 AM 52.5°F11.4°C 48.1°F8.9°C 85% 5.4 mph E8.7 kmh E 10.0 mph16.1 kmh 29.80 in1009.1 mb 0.00 in0.0 mm 0.00 in0.0 mm 0.00 in0.0 mm
04:30 AM 52.5°F11.4°C 48.1°F8.9°C 85% 2.7 mph ENE4.3 kmh ENE 7.5 mph12.1 kmh 29.80 in1009.1 mb 0.00 in0.0 mm 0.00 in0.0 mm 0.00 in0.0 mm
04:40 AM 52.7°F11.5°C 48.3°F9.1°C 85% 3.6 mph E5.8 kmh E 9.3 mph15.0 kmh 29.80 in1009.1 mb 0.00 in0.0 mm 0.00 in0.0 mm 0.00 in0.0 mm
04:50 AM 52.7°F11.5°C 48.3°F9.1°C 85% 3.0 mph E4.8 kmh E 7.5 mph12.1 kmh 29.80 in1009.1 mb 0.00 in0.0 mm 0.00 in0.0 mm 0.00 in0.0 mm
05:00 AM 52.7°F11.5°C 48.3°F9.1°C 85% 2.6 mph E4.2 kmh E 5.0 mph8.0 kmh 29.80 in1009.1 mb 0.00 in0.0 mm 0.00 in0.0 mm 0.00 in0.0 mm
05:10 AM 52.7°F11.5°C 48.3°F9.1°C 85% 0.6 mph E1.0 kmh E 7.5 mph12.1 kmh 29.80 in1009.1 mb 0.00 in0.0 mm 0.00 in0.0 mm 0.00 in0.0 mm
05:20 AM 52.7°F11.5°C 48.3°F9.1°C 85% 1.1 mph E1.8 kmh E 7.2 mph11.6 kmh 29.80 in1009.1 mb 0.00 in0.0 mm 0.00 in0.0 mm 0.00 in0.0 mm
05:30 AM 52.9°F11.6°C 48.5°F9.2°C 85% 3.7 mph E6.0 kmh E 8.9 mph14.3 kmh 29.80 in1009.1 mb 0.00 in0.0 mm 0.00 in0.0 mm 0.00 in0.0 mm
05:40 AM 52.9°F11.6°C 48.5°F9.2°C 85% 6.8 mph E10.9 kmh E 12.2 mph19.6 kmh 29.80 in1009.1 mb 0.00 in0.0 mm 0.00 in0.0 mm 0.00 in0.0 mm
05:50 AM 52.9°F11.6°C 48.5°F9.2°C 85% 6.4 mph E10.3 kmh E 11.5 mph18.5 kmh 29.80 in1009.1 mb 0.00 in0.0 mm 0.00 in0.0 mm 0.00 in0.0 mm
06:00 AM 52.9°F11.6°C 48.8°F9.3°C 86% 5.4 mph E8.7 kmh E 6.8 mph10.9 kmh 29.80 in1009.1 mb 0.00 in0.0 mm 0.00 in0.0 mm 0.00 in0.0 mm
06:10 AM 53.1°F11.7°C 49.0°F9.4°C 86% 5.9 mph E9.5 kmh E 10.4 mph16.7 kmh 29.80 in1009.1 mb 0.00 in0.0 mm 0.00 in0.0 mm 0.00 in0.0 mm
06:20 AM 53.1°F11.7°C 49.0°F9.4°C 86% 7.1 mph E11.4 kmh E 10.4 mph16.7 kmh 29.80 in1009.1 mb 0.00 in0.0 mm 0.00 in0.0 mm 0.00 in0.0 mm
06:30 AM 53.1°F11.7°C 49.0°F9.4°C 86% 6.7 mph E10.8 kmh E 12.2 mph19.6 kmh 29.80 in1009.1 mb 0.00 in0.0 mm 0.00 in0.0 mm 0.00 in0.0 mm
06:40 AM 53.2°F11.8°C 49.2°F9.6°C 86% 6.2 mph E10.0 kmh E 10.4 mph16.7 kmh 29.80 in1009.1 mb 0.00 in0.0 mm 0.00 in0.0 mm 0.00 in0.0 mm
06:50 AM 53.4°F11.9°C 49.3°F9.6°C 86% 6.4 mph ESE10.3 kmh ESE 8.6 mph13.8 kmh 29.80 in1009.1 mb 0.00 in0.0 mm 0.00 in0.0 mm 0.00 in0.0 mm
07:00 AM 53.4°F11.9°C 49.3°F9.6°C 86% 6.6 mph E10.6 kmh E 9.7 mph15.6 kmh 29.80 in1009.1 mb 0.00 in0.0 mm 0.00 in0.0 mm 0.00 in0.0 mm
07:10 AM 53.6°F12.0°C 49.5°F9.7°C 86% 6.9 mph E11.1 kmh E 9.7 mph15.6 kmh 29.80 in1009.1 mb 0.00 in0.0 mm 0.00 in0.0 mm 0.00 in0.0 mm
07:20 AM 53.8°F12.1°C 49.4°F9.7°C 85% 6.2 mph E10.0 kmh E 8.9 mph14.3 kmh 29.80 in1009.1 mb 0.00 in0.0 mm 0.00 in0.0 mm 0.00 in0.0 mm
07:30 AM 53.8°F12.1°C 49.4°F9.7°C 85% 6.6 mph E10.6 kmh E 8.6 mph13.8 kmh 29.80 in1009.1 mb 0.00 in0.0 mm 0.00 in0.0 mm 0.00 in0.0 mm
07:40 AM 54.1°F12.3°C 49.7°F9.8°C 85% 5.1 mph E8.2 kmh E 8.6 mph13.8 kmh 29.80 in1009.1 mb 0.00 in0.0 mm 0.00 in0.0 mm 0.00 in0.0 mm
07:50 AM 54.1°F12.3°C 49.7°F9.8°C 85% 7.1 mph E11.4 kmh E 12.9 mph20.8 kmh 29.80 in1009.1 mb 0.00 in0.0 mm 0.00 in0.0 mm 0.00 in0.0 mm
08:00 AM 54.5°F12.5°C 50.1°F10.1°C 85% 4.8 mph E7.7 kmh E 12.9 mph20.8 kmh 29.80 in1009.1 mb 0.00 in0.0 mm 0.00 in0.0 mm 0.00 in0.0 mm
08:10 AM 54.9°F12.7°C 50.4°F10.2°C 85% 6.1 mph E9.8 kmh E 9.7 mph15.6 kmh 29.80 in1009.1 mb 0.00 in0.0 mm 0.00 in0.0 mm 0.00 in0.0 mm
08:20 AM 55.0°F12.8°C 50.6°F10.3°C 85% 4.3 mph ESE6.9 kmh ESE 8.6 mph13.8 kmh 29.80 in1009.1 mb 0.00 in0.0 mm 0.00 in0.0 mm 0.00 in0.0 mm
08:30 AM 55.4°F13.0°C 51.0°F10.6°C 85% 5.0 mph E8.0 kmh E 10.7 mph17.2 kmh 29.80 in1009.1 mb 0.00 in0.0 mm 0.00 in0.0 mm 0.00 in0.0 mm
08:40 AM 55.6°F13.1°C 50.8°F10.4°C 84% 8.6 mph E13.8 kmh E 13.6 mph21.9 kmh 29.80 in1009.1 mb 0.00 in0.0 mm 0.00 in0.0 mm 0.00 in0.0 mm
08:50 AM 55.8°F13.2°C 51.0°F10.6°C 84% 9.9 mph E15.9 kmh E 13.6 mph21.9 kmh 29.80 in1009.1 mb 0.00 in0.0 mm 0.00 in0.0 mm 0.00 in0.0 mm
09:00 AM 55.9°F13.3°C 50.9°F10.5°C 83% 3.2 mph E5.1 kmh E 4.7 mph7.6 kmh 29.80 in1009.1 mb 0.00 in0.0 mm 0.00 in0.0 mm 0.00 in0.0 mm
09:10 AM 56.1°F13.4°C 51.0°F10.6°C 83% 6.2 mph E10.0 kmh E 9.7 mph15.6 kmh 29.80 in1009.1 mb 0.00 in0.0 mm 0.00 in0.0 mm 0.00 in0.0 mm
09:20 AM 56.3°F13.5°C 50.9°F10.5°C 82% 7.3 mph E11.7 kmh E 12.2 mph19.6 kmh 29.80 in1009.1 mb 0.00 in0.0 mm 0.00 in0.0 mm 0.00 in0.0 mm
09:30 AM 56.3°F13.5°C 50.9°F10.5°C 82% 7.8 mph E12.6 kmh E 10.4 mph16.7 kmh 29.80 in1009.1 mb 0.00 in0.0 mm 0.00 in0.0 mm 0.00 in0.0 mm
09:40 AM 56.5°F13.6°C 50.7°F10.4°C 81% 8.3 mph E13.4 kmh E 17.2 mph27.7 kmh 29.80 in1009.1 mb 0.00 in0.0 mm 0.00 in0.0 mm 0.00 in0.0 mm
09:50 AM 56.7°F13.7°C 50.9°F10.5°C 81% 8.5 mph E13.7 kmh E 16.1 mph25.9 kmh 29.80 in1009.1 mb 0.00 in0.0 mm 0.00 in0.0 mm 0.00 in0.0 mm
10:00 AM 56.8°F13.8°C 51.1°F10.6°C 81% 7.2 mph E11.6 kmh E 12.2 mph19.6 kmh 29.80 in1009.1 mb 0.00 in0.0 mm 0.00 in0.0 mm 0.00 in0.0 mm
10:10 AM 57.2°F14.0°C 51.1°F10.6°C 80% 8.4 mph E13.5 kmh E 12.9 mph20.8 kmh 29.80 in1009.1 mb 0.00 in0.0 mm 0.00 in0.0 mm 0.00 in0.0 mm
10:20 AM 57.4°F14.1°C 51.3°F10.7°C 80% 7.4 mph E11.9 kmh E 17.2 mph27.7 kmh 29.80 in1009.1 mb 0.00 in0.0 mm 0.00 in0.0 mm 0.00 in0.0 mm
10:30 AM 57.6°F14.2°C 51.1°F10.6°C 79% 7.2 mph E11.6 kmh E 12.2 mph19.6 kmh 29.80 in1009.1 mb 0.00 in0.0 mm 0.00 in0.0 mm 0.00 in0.0 mm
10:40 AM 57.4°F14.1°C 50.9°F10.5°C 79% 6.9 mph E11.1 kmh E 13.6 mph21.9 kmh 29.80 in1009.1 mb 0.00 in0.0 mm 0.00 in0.0 mm 0.00 in0.0 mm
10:50 AM 57.2°F14.0°C 50.7°F10.4°C 79% 8.7 mph E14.0 kmh E 15.7 mph25.3 kmh 29.80 in1009.1 mb 0.00 in0.0 mm 0.00 in0.0 mm 0.00 in0.0 mm
11:00 AM 57.2°F14.0°C 50.7°F10.4°C 79% 9.3 mph E15.0 kmh E 16.1 mph25.9 kmh 29.80 in1009.1 mb 0.00 in0.0 mm 0.00 in0.0 mm 0.00 in0.0 mm
11:10 AM 57.0°F13.9°C 50.6°F10.3°C 79% 5.6 mph E9.0 kmh E 8.9 mph14.3 kmh 29.80 in1009.1 mb 0.00 in0.0 mm 0.00 in0.0 mm 0.00 in0.0 mm
11:20 AM 57.2°F14.0°C 50.7°F10.4°C 79% 7.5 mph E12.1 kmh E 13.6 mph21.9 kmh 29.80 in1009.1 mb 0.00 in0.0 mm 0.00 in0.0 mm 0.00 in0.0 mm
11:30 AM 57.2°F14.0°C 50.7°F10.4°C 79% 8.6 mph E13.8 kmh E 14.0 mph22.5 kmh 29.80 in1009.1 mb 0.00 in0.0 mm 0.00 in0.0 mm 0.00 in0.0 mm
11:40 AM 57.6°F14.2°C 51.1°F10.6°C 79% 7.5 mph E12.1 kmh E 10.7 mph17.2 kmh 29.80 in1009.1 mb 0.00 in0.0 mm 0.00 in0.0 mm 0.00 in0.0 mm
11:50 AM 57.9°F14.4°C 51.4°F10.8°C 79% 7.0 mph E11.3 kmh E 10.7 mph17.2 kmh 29.80 in1009.1 mb 0.00 in0.0 mm 0.00 in0.0 mm 0.00 in0.0 mm
12:00 PM 58.5°F14.7°C 52.0°F11.1°C 79% 6.9 mph E11.1 kmh E 15.7 mph25.3 kmh 29.80 in1009.1 mb 0.00 in0.0 mm 0.00 in0.0 mm 0.00 in0.0 mm
12:10 PM 59.0°F15.0°C 52.5°F11.4°C 79% 7.5 mph E12.1 kmh E 12.9 mph20.8 kmh 29.80 in1009.1 mb 0.00 in0.0 mm 0.00 in0.0 mm 0.00 in0.0 mm
12:20 PM 59.2°F15.1°C 52.3°F11.3°C 78% 6.5 mph E10.5 kmh E 16.1 mph25.9 kmh 29.80 in1009.1 mb 0.00 in0.0 mm 0.00 in0.0 mm 0.00 in0.0 mm
12:30 PM 59.7°F15.4°C 52.8°F11.6°C 78% 8.3 mph E13.4 kmh E 17.5 mph28.2 kmh 29.80 in1009.1 mb 0.00 in0.0 mm 0.00 in0.0 mm 0.00 in0.0 mm
12:40 PM 59.9°F15.5°C 52.7°F11.5°C 77% 7.1 mph E11.4 kmh E 12.5 mph20.1 kmh 29.80 in1009.1 mb 0.00 in0.0 mm 0.00 in0.0 mm 0.00 in0.0 mm
12:50 PM 59.7°F15.4°C 52.5°F11.4°C 77% 4.8 mph E7.7 kmh E 7.5 mph12.1 kmh 29.80 in1009.1 mb 0.00 in0.0 mm 0.00 in0.0 mm 0.00 in0.0 mm
01:00 PM 59.5°F15.3°C 52.3°F11.3°C 77% 7.6 mph E12.2 kmh E 12.2 mph19.6 kmh 29.80 in1009.1 mb 0.00 in0.0 mm 0.00 in0.0 mm 0.00 in0.0 mm
01:10 PM 59.4°F15.2°C 51.8°F11.0°C 76% 6.2 mph E10.0 kmh E 9.3 mph15.0 kmh 29.80 in1009.1 mb 0.00 in0.0 mm 0.00 in0.0 mm 0.00 in0.0 mm
01:20 PM 59.4°F15.2°C 52.1°F11.2°C 77% 4.4 mph E7.1 kmh E 10.0 mph16.1 kmh 29.80 in1009.1 mb 0.00 in0.0 mm 0.00 in0.0 mm 0.00 in0.0 mm
01:30 PM 59.2°F15.1°C 51.6°F10.9°C 76% 5.2 mph E8.4 kmh E 9.3 mph15.0 kmh 29.80 in1009.1 mb 0.00 in0.0 mm 0.00 in0.0 mm 0.00 in0.0 mm
01:40 PM 58.8°F14.9°C 51.3°F10.7°C 76% 7.4 mph E11.9 kmh E 12.9 mph20.8 kmh 29.80 in1009.1 mb 0.00 in0.0 mm 0.00 in0.0 mm 0.00 in0.0 mm
01:50 PM 58.5°F14.7°C 51.3°F10.7°C 77% 7.8 mph E12.6 kmh E 11.5 mph18.5 kmh 29.80 in1009.1 mb 0.00 in0.0 mm 0.00 in0.0 mm 0.00 in0.0 mm
02:00 PM 58.3°F14.6°C 51.1°F10.6°C 77% 6.7 mph E10.8 kmh E 10.7 mph17.2 kmh 29.80 in1009.1 mb 0.00 in0.0 mm 0.00 in0.0 mm 0.00 in0.0 mm
02:10 PM 58.3°F14.6°C 51.1°F10.6°C 77% 7.6 mph E12.2 kmh E 10.4 mph16.7 kmh 29.80 in1009.1 mb 0.00 in0.0 mm 0.00 in0.0 mm 0.00 in0.0 mm
02:20 PM 58.6°F14.8°C 51.8°F11.0°C 78% 6.2 mph E10.0 kmh E 12.5 mph20.1 kmh 29.80 in1009.1 mb 0.00 in0.0 mm 0.00 in0.0 mm 0.00 in0.0 mm
02:30 PM 58.6°F14.8°C 51.8°F11.0°C 78% 5.7 mph E9.2 kmh E 12.5 mph20.1 kmh 29.80 in1009.1 mb 0.00 in0.0 mm 0.00 in0.0 mm 0.00 in0.0 mm
02:40 PM 58.6°F14.8°C 51.4°F10.8°C 77% 3.8 mph E6.1 kmh E 11.8 mph19.0 kmh 29.80 in1009.1 mb 0.00 in0.0 mm 0.00 in0.0 mm 0.00 in0.0 mm
02:50 PM 58.6°F14.8°C 51.4°F10.8°C 77% 7.0 mph E11.3 kmh E 11.8 mph19.0 kmh 29.80 in1009.1 mb 0.00 in0.0 mm 0.00 in0.0 mm 0.00 in0.0 mm
03:00 PM 58.5°F14.7°C 51.3°F10.7°C 77% 7.6 mph ESE12.2 kmh ESE 12.9 mph20.8 kmh 29.80 in1009.1 mb 0.00 in0.0 mm 0.00 in0.0 mm 0.00 in0.0 mm
03:10 PM 58.3°F14.6°C 51.1°F10.6°C 77% 9.9 mph SE15.9 kmh SE 12.9 mph20.8 kmh 29.80 in1009.1 mb 0.00 in0.0 mm 0.00 in0.0 mm 0.00 in0.0 mm
03:20 PM 58.3°F14.6°C 51.1°F10.6°C 77% 5.9 mph SE9.5 kmh SE 12.2 mph19.6 kmh 29.80 in1009.1 mb 0.00 in0.0 mm 0.00 in0.0 mm 0.00 in0.0 mm
03:30 PM 58.5°F14.7°C 51.3°F10.7°C 77% 5.7 mph E9.2 kmh E 8.9 mph14.3 kmh 29.80 in1009.1 mb 0.00 in0.0 mm 0.00 in0.0 mm 0.00 in0.0 mm
03:40 PM 58.5°F14.7°C 51.3°F10.7°C 77% 4.8 mph E7.7 kmh E 7.5 mph12.1 kmh 29.80 in1009.1 mb 0.00 in0.0 mm 0.00 in0.0 mm 0.00 in0.0 mm
03:50 PM 58.3°F14.6°C 51.1°F10.6°C 77% 4.0 mph ENE6.4 kmh ENE 7.5 mph12.1 kmh 29.80 in1009.1 mb 0.00 in0.0 mm 0.00 in0.0 mm 0.00 in0.0 mm
04:00 PM 58.3°F14.6°C 51.1°F10.6°C 77% 1.2 mph E1.9 kmh E 1.4 mph2.3 kmh 29.80 in1009.1 mb 0.00 in0.0 mm 0.00 in0.0 mm 0.00 in0.0 mm
04:10 PM 58.1°F14.5°C 50.9°F10.5°C 77% 5.3 mph E8.5 kmh E 7.9 mph12.7 kmh 29.80 in1009.1 mb 0.00 in0.0 mm 0.00 in0.0 mm 0.00 in0.0 mm
04:20 PM 57.9°F14.4°C 50.8°F10.4°C 77% 6.1 mph E9.8 kmh E 7.5 mph12.1 kmh 29.80 in1009.1 mb 0.00 in0.0 mm 0.00 in0.0 mm 0.00 in0.0 mm
04:30 PM 57.7°F14.3°C 50.6°F10.3°C 77% 6.2 mph E10.0 kmh E 9.3 mph15.0 kmh 29.80 in1009.1 mb 0.00 in0.0 mm 0.00 in0.0 mm 0.00 in0.0 mm
04:40 PM 57.6°F14.2°C 50.4°F10.2°C 77% 5.9 mph E9.5 kmh E 10.7 mph17.2 kmh 29.80 in1009.1 mb 0.00 in0.0 mm 0.00 in0.0 mm 0.00 in0.0 mm
04:50 PM 57.4°F14.1°C 50.2°F10.1°C 77% 6.9 mph E11.1 kmh E 12.5 mph20.1 kmh 29.80 in1009.1 mb 0.00 in0.0 mm 0.00 in0.0 mm 0.00 in0.0 mm
05:00 PM 57.2°F14.0°C 50.4°F10.2°C 78% 6.0 mph E9.7 kmh E 9.3 mph15.0 kmh 29.80 in1009.1 mb 0.00 in0.0 mm 0.00 in0.0 mm 0.00 in0.0 mm
05:10 PM 57.2°F14.0°C 50.4°F10.2°C 78% 3.2 mph E5.1 kmh E 3.9 mph6.3 kmh 29.80 in1009.1 mb 0.00 in0.0 mm 0.00 in0.0 mm 0.00 in0.0 mm
05:20 PM 57.0°F13.9°C 50.2°F10.1°C 78% 4.9 mph E7.9 kmh E 8.6 mph13.8 kmh 29.80 in1009.1 mb 0.00 in0.0 mm 0.00 in0.0 mm 0.00 in0.0 mm
05:30 PM 57.0°F13.9°C 50.2°F10.1°C 78% 2.7 mph ESE4.3 kmh ESE 4.7 mph7.6 kmh 29.80 in1009.1 mb 0.00 in0.0 mm 0.00 in0.0 mm 0.00 in0.0 mm
05:40 PM 56.8°F13.8°C 50.1°F10.1°C 78% 4.3 mph ENE6.9 kmh ENE 6.4 mph10.3 kmh 29.80 in1009.1 mb 0.00 in0.0 mm 0.00 in0.0 mm 0.00 in0.0 mm
05:50 PM 56.8°F13.8°C 50.1°F10.1°C 78% 4.9 mph E7.9 kmh E 6.1 mph9.8 kmh 29.80 in1009.1 mb 0.00 in0.0 mm 0.00 in0.0 mm 0.00 in0.0 mm
06:00 PM 56.7°F13.7°C 49.9°F9.9°C 78% 5.7 mph E9.2 kmh E 10.4 mph16.7 kmh 29.80 in1009.1 mb 0.00 in0.0 mm 0.00 in0.0 mm 0.00 in0.0 mm
06:10 PM 56.7°F13.7°C 49.9°F9.9°C 78% 8.4 mph E13.5 kmh E 10.4 mph16.7 kmh 29.83 in1010.2 mb 0.00 in0.0 mm 0.00 in0.0 mm 0.00 in0.0 mm
06:20 PM 56.7°F13.7°C 49.9°F9.9°C 78% 8.4 mph E13.5 kmh E 10.4 mph16.7 kmh 29.83 in1010.2 mb 0.00 in0.0 mm 0.00 in0.0 mm 0.00 in0.0 mm
06:30 PM 56.5°F13.6°C 49.7°F9.8°C 78% 4.7 mph NE7.6 kmh NE 10.0 mph16.1 kmh 29.83 in1010.2 mb 0.00 in0.0 mm 0.00 in0.0 mm 0.00 in0.0 mm
06:40 PM 56.5°F13.6°C 49.7°F9.8°C 78% 5.9 mph E9.5 kmh E 10.4 mph16.7 kmh 29.83 in1010.2 mb 0.00 in0.0 mm 0.00 in0.0 mm 0.00 in0.0 mm
06:50 PM 56.5°F13.6°C 49.7°F9.8°C 78% 2.1 mph E3.4 kmh E 8.6 mph13.8 kmh 29.83 in1010.2 mb 0.00 in0.0 mm 0.00 in0.0 mm 0.00 in0.0 mm
07:00 PM 56.3°F13.5°C 49.5°F9.7°C 78% 1.2 mph E1.9 kmh E 6.8 mph10.9 kmh 29.83 in1010.2 mb 0.00 in0.0 mm 0.00 in0.0 mm 0.00 in0.0 mm
07:10 PM 56.3°F13.5°C 49.5°F9.7°C 78% 2.0 mph E3.2 kmh E 6.4 mph10.3 kmh 29.83 in1010.2 mb 0.00 in0.0 mm 0.00 in0.0 mm 0.00 in0.0 mm
07:20 PM 56.3°F13.5°C 49.5°F9.7°C 78% 5.2 mph E8.4 kmh E 10.4 mph16.7 kmh 29.83 in1010.2 mb 0.00 in0.0 mm 0.00 in0.0 mm 0.00 in0.0 mm
07:30 PM 56.1°F13.4°C 49.4°F9.7°C 78% 5.4 mph E8.7 kmh E 14.0 mph22.5 kmh 29.83 in1010.2 mb 0.00 in0.0 mm 0.00 in0.0 mm 0.00 in0.0 mm
07:40 PM 56.1°F13.4°C 49.4°F9.7°C 78% 5.2 mph E8.4 kmh E 10.0 mph16.1 kmh 29.83 in1010.2 mb 0.00 in0.0 mm 0.00 in0.0 mm 0.00 in0.0 mm
07:50 PM 56.1°F13.4°C 49.4°F9.7°C 78% 4.5 mph ENE7.2 kmh ENE 9.7 mph15.6 kmh 29.83 in1010.2 mb 0.00 in0.0 mm 0.00 in0.0 mm 0.00 in0.0 mm
08:00 PM 55.9°F13.3°C 49.2°F9.6°C 78% 3.2 mph E5.1 kmh E 9.7 mph15.6 kmh 29.83 in1010.2 mb 0.00 in0.0 mm 0.00 in0.0 mm 0.00 in0.0 mm
08:10 PM 55.8°F13.2°C 49.0°F9.4°C 78% 3.8 mph E6.1 kmh E 8.9 mph14.3 kmh 29.83 in1010.2 mb 0.00 in0.0 mm 0.00 in0.0 mm 0.00 in0.0 mm
08:20 PM 55.8°F13.2°C 49.0°F9.4°C 78% 4.2 mph E6.8 kmh E 8.9 mph14.3 kmh 29.83 in1010.2 mb 0.00 in0.0 mm 0.00 in0.0 mm 0.00 in0.0 mm
08:30 PM 55.6°F13.1°C 48.8°F9.3°C 78% 3.3 mph E5.3 kmh E 9.7 mph15.6 kmh 29.83 in1010.2 mb 0.00 in0.0 mm 0.00 in0.0 mm 0.00 in0.0 mm
08:40 PM 55.4°F13.0°C 48.7°F9.3°C 78% 5.2 mph E8.4 kmh E 9.7 mph15.6 kmh 29.83 in1010.2 mb 0.00 in0.0 mm 0.00 in0.0 mm 0.00 in0.0 mm
08:50 PM 55.4°F13.0°C 48.7°F9.3°C 78% 4.4 mph E7.1 kmh E 8.9 mph14.3 kmh 29.83 in1010.2 mb 0.00 in0.0 mm 0.00 in0.0 mm 0.00 in0.0 mm
09:00 PM 55.2°F12.9°C 48.5°F9.2°C 78% 4.0 mph E6.4 kmh E 6.8 mph10.9 kmh 29.83 in1010.2 mb 0.00 in0.0 mm 0.00 in0.0 mm 0.00 in0.0 mm
09:10 PM 55.0°F12.8°C 48.3°F9.1°C 78% 4.5 mph E7.2 kmh E 8.9 mph14.3 kmh 29.83 in1010.2 mb 0.00 in0.0 mm 0.00 in0.0 mm 0.00 in0.0 mm
09:20 PM 54.9°F12.7°C 48.1°F8.9°C 78% 4.9 mph E7.9 kmh E 7.9 mph12.7 kmh 29.83 in1010.2 mb 0.00 in0.0 mm 0.00 in0.0 mm 0.00 in0.0 mm
09:30 PM 54.7°F12.6°C 48.0°F8.9°C 78% 1.4 mph E2.3 kmh E 7.5 mph12.1 kmh 29.83 in1010.2 mb 0.00 in0.0 mm 0.00 in0.0 mm 0.00 in0.0 mm
09:40 PM 54.5°F12.5°C 47.8°F8.8°C 78% 1.5 mph E2.4 kmh E 6.1 mph9.8 kmh 29.83 in1010.2 mb 0.00 in0.0 mm 0.00 in0.0 mm 0.00 in0.0 mm
09:50 PM 54.3°F12.4°C 47.9°F8.8°C 79% 1.1 mph E1.8 kmh E 8.9 mph14.3 kmh 29.83 in1010.2 mb 0.00 in0.0 mm 0.00 in0.0 mm 0.00 in0.0 mm
10:00 PM 54.3°F12.4°C 47.9°F8.8°C 79% 4.5 mph E7.2 kmh E 10.4 mph16.7 kmh 29.86 in1011.2 mb 0.00 in0.0 mm 0.00 in0.0 mm 0.00 in0.0 mm
10:10 PM 54.1°F12.3°C 47.8°F8.8°C 79% 4.7 mph E7.6 kmh E 10.4 mph16.7 kmh 29.83 in1010.2 mb 0.00 in0.0 mm 0.00 in0.0 mm 0.00 in0.0 mm
10:20 PM 54.1°F12.3°C 47.8°F8.8°C 79% 3.7 mph E6.0 kmh E 7.9 mph12.7 kmh 29.83 in1010.2 mb 0.00 in0.0 mm 0.00 in0.0 mm 0.00 in0.0 mm
10:30 PM 54.0°F12.2°C 47.6°F8.7°C 79% 3.9 mph E6.3 kmh E 7.2 mph11.6 kmh 29.86 in1011.2 mb 0.00 in0.0 mm 0.00 in0.0 mm 0.00 in0.0 mm
10:40 PM 54.0°F12.2°C 47.6°F8.7°C 79% 4.1 mph E6.6 kmh E 7.9 mph12.7 kmh 29.83 in1010.2 mb 0.00 in0.0 mm 0.00 in0.0 mm 0.00 in0.0 mm
10:50 PM 53.8°F12.1°C 47.4°F8.6°C 79% 6.3 mph E10.1 kmh E 10.0 mph16.1 kmh 29.83 in1010.2 mb 0.00 in0.0 mm 0.00 in0.0 mm 0.00 in0.0 mm
11:00 PM 53.6°F12.0°C 46.9°F8.3°C 78% 7.3 mph E11.7 kmh E 11.8 mph19.0 kmh 29.80 in1009.1 mb 0.00 in0.0 mm 0.00 in0.0 mm 0.00 in0.0 mm
11:10 PM 53.4°F11.9°C 46.7°F8.2°C 78% 7.6 mph E12.2 kmh E 13.6 mph21.9 kmh 29.83 in1010.2 mb 0.00 in0.0 mm 0.00 in0.0 mm 0.00 in0.0 mm
11:20 PM 53.2°F11.8°C 46.2°F7.9°C 77% 8.4 mph E13.5 kmh E 16.1 mph25.9 kmh 29.83 in1010.2 mb 0.00 in0.0 mm 0.00 in0.0 mm 0.00 in0.0 mm
11:30 PM 53.1°F11.7°C 46.0°F7.8°C 77% 7.5 mph E12.1 kmh E 12.2 mph19.6 kmh 29.83 in1010.2 mb 0.00 in0.0 mm 0.00 in0.0 mm 0.00 in0.0 mm
11:40 PM 52.7°F11.5°C 45.3°F7.4°C 76% 9.1 mph E14.6 kmh E 12.9 mph20.8 kmh 29.83 in1010.2 mb 0.00 in0.0 mm 0.00 in0.0 mm 0.00 in0.0 mm
11:50 PM 52.3°F11.3°C 45.3°F7.4°C 77% 7.3 mph E11.7 kmh E 13.6 mph21.9 kmh 29.83 in1010.2 mb 0.00 in0.0 mm 0.00 in0.0 mm 0.00 in0.0 mm